createdAt,value
2022-10-19T00:03:10.134Z,101843.39
2022-10-19T00:08:15.622Z,101834.84
2022-10-19T00:13:21.146Z,101830.53
2022-10-19T00:18:26.598Z,101829.95
2022-10-19T00:23:32.223Z,101839.80
2022-10-19T00:28:37.946Z,101853.53
2022-10-19T00:33:46.263Z,101851.82
2022-10-19T00:38:51.985Z,101848.55
2022-10-19T00:44:00.315Z,101851.00
2022-10-19T00:49:25.252Z,101846.97
2022-10-19T00:54:32.796Z,101845.70
2022-10-19T00:59:39.722Z,101844.16
2022-10-19T01:04:48.225Z,101837.05
2022-10-19T01:09:54.844Z,101831.74
2022-10-19T01:15:06.247Z,101830.28
2022-10-19T01:20:35.774Z,101829.56
2022-10-19T01:25:53.189Z,101820.10
2022-10-19T01:31:04.632Z,101820.64
2022-10-19T01:36:31.620Z,101820.17
2022-10-19T01:41:46.539Z,101818.98
2022-10-19T01:46:54.966Z,101830.20
2022-10-19T01:52:03.420Z,101834.31
2022-10-19T01:57:11.981Z,101820.48
2022-10-19T02:02:20.188Z,101831.09
2022-10-19T02:07:27.305Z,101852.50
2022-10-19T02:12:33.732Z,101846.55
2022-10-19T02:17:42.441Z,101846.34
2022-10-19T02:22:48.030Z,101852.19
2022-10-19T02:27:53.767Z,101841.77
2022-10-19T02:32:59.313Z,101831.56
2022-10-19T02:38:07.011Z,101835.03
2022-10-19T02:43:15.419Z,101840.02
2022-10-19T02:48:24.025Z,101845.05
2022-10-19T02:53:30.246Z,101813.75
2022-10-19T02:58:35.736Z,101821.20
2022-10-19T03:03:41.198Z,101817.38
2022-10-19T03:08:46.713Z,101820.94
2022-10-19T03:13:52.167Z,101828.98
2022-10-19T03:18:57.689Z,101826.77
2022-10-19T03:24:03.201Z,101827.53
2022-10-19T03:29:09.120Z,101834.30
2022-10-19T03:34:14.598Z,101844.43
2022-10-19T03:39:20.266Z,101837.66
2022-10-19T03:44:25.736Z,101846.17
2022-10-19T03:49:31.180Z,101844.43
2022-10-19T03:54:36.766Z,101845.58
2022-10-19T03:59:42.432Z,101844.95
2022-10-19T04:04:48.935Z,101840.73
2022-10-19T04:09:54.380Z,101841.27
2022-10-19T04:14:59.872Z,101845.23
2022-10-19T04:20:06.343Z,101850.46
2022-10-19T04:25:12.901Z,101858.17
2022-10-19T04:30:18.490Z,101868.83
2022-10-19T04:35:23.996Z,101874.13
2022-10-19T04:40:29.454Z,101873.16
2022-10-19T04:45:36.732Z,101880.33
2022-10-19T04:50:42.156Z,101877.64
2022-10-19T04:55:49.371Z,101888.03
2022-10-19T05:00:54.864Z,101885.58
2022-10-19T05:06:00.941Z,101880.75
2022-10-19T05:11:09.591Z,101882.50
2022-10-19T05:16:20.940Z,101885.98
2022-10-19T05:21:28.899Z,101884.95
2022-10-19T05:26:34.354Z,101889.20
2022-10-19T05:31:39.936Z,101890.71
2022-10-19T05:36:45.328Z,101889.20
2022-10-19T05:41:50.971Z,101894.06
2022-10-19T05:46:56.489Z,101903.31
2022-10-19T05:52:02.013Z,101913.03
2022-10-19T05:57:07.532Z,101907.94
2022-10-19T06:02:14.855Z,101911.96
2022-10-19T06:07:20.409Z,101912.23
2022-10-19T06:12:25.954Z,101916.73
2022-10-19T06:17:31.810Z,101916.53
2022-10-19T06:22:37.426Z,101928.53
2022-10-19T06:27:42.867Z,101941.00
2022-10-19T06:32:48.422Z,101953.72
2022-10-19T06:37:53.983Z,101954.98
2022-10-19T06:42:59.610Z,101953.52
2022-10-19T06:48:07.659Z,101957.13
2022-10-19T06:53:13.165Z,101973.97
2022-10-19T06:58:18.693Z,101961.42
2022-10-19T07:03:24.824Z,101971.11
2022-10-19T07:08:32.199Z,101981.69
2022-10-19T07:13:38.588Z,101985.23
2022-10-19T07:18:44.293Z,101994.77
2022-10-19T07:23:51.385Z,101996.17
2022-10-19T07:28:58.312Z,102015.67
2022-10-19T07:34:06.111Z,102015.20
2022-10-19T07:39:12.817Z,102015.03
2022-10-19T07:44:18.420Z,102027.27
2022-10-19T07:49:24.016Z,102029.55
2022-10-19T07:54:29.620Z,102036.27
2022-10-19T07:59:36.150Z,102041.03
2022-10-19T08:05:00.700Z,102036.45
2022-10-19T08:09:53.269Z,102050.55
2022-10-19T08:14:55.903Z,102055.19
2022-10-19T08:20:01.517Z,102054.98
2022-10-19T08:25:07.688Z,102067.02
2022-10-19T08:30:13.367Z,102069.14
2022-10-19T08:35:18.966Z,102062.52
2022-10-19T08:40:30.683Z,102063.66
2022-10-19T08:45:44.990Z,102073.75
2022-10-19T08:50:51.131Z,102071.67
2022-10-19T08:56:38.848Z,102080.20
2022-10-19T09:01:47.023Z,102078.23
2022-10-19T09:06:58.634Z,102075.02
2022-10-19T09:12:07.100Z,102071.72
2022-10-19T09:17:17.087Z,102085.44
2022-10-19T09:22:28.344Z,102081.72
2022-10-19T09:27:36.804Z,102084.30
2022-10-19T09:32:43.113Z,102088.64
2022-10-19T09:37:50.800Z,102098.64
2022-10-19T09:43:01.632Z,102102.09
2022-10-19T09:48:13.105Z,102112.89
2022-10-19T09:53:20.905Z,102134.18
2022-10-19T09:58:32.095Z,102124.52
2022-10-19T10:03:43.766Z,102130.33
2022-10-19T10:08:56.702Z,102138.66
2022-10-19T10:14:20.222Z,102149.34
2022-10-19T10:19:28.757Z,102154.72
2022-10-19T10:24:35.401Z,102154.00
2022-10-19T10:29:40.952Z,102157.11
2022-10-19T10:35:07.451Z,102161.38
2022-10-19T10:40:25.111Z,102162.62
2022-10-19T10:45:45.530Z,102169.08
2022-10-19T10:50:52.212Z,102168.27
2022-10-19T10:55:58.396Z,102171.78
2022-10-19T11:01:07.834Z,102172.57
2022-10-19T11:06:15.684Z,102165.12
2022-10-19T11:11:33.202Z,102170.52
2022-10-19T11:16:47.833Z,102167.10
2022-10-19T11:22:15.722Z,102162.27
2022-10-19T11:27:43.514Z,102165.13
2022-10-19T11:33:18.700Z,102162.09
2022-10-19T11:39:00.644Z,102169.80
2022-10-19T11:44:14.813Z,102175.87
2022-10-19T11:49:41.154Z,102178.86
2022-10-19T11:54:55.231Z,102179.77
2022-10-19T12:05:34.574Z,102171.07
2022-10-19T12:11:01.138Z,102164.09
2022-10-19T12:16:08.366Z,102169.41
2022-10-19T12:21:41.255Z,102166.70
2022-10-19T12:26:48.157Z,102173.27
2022-10-19T12:31:55.179Z,102165.13
2022-10-19T12:37:03.636Z,102171.23
2022-10-19T12:42:23.994Z,102158.64
2022-10-19T12:47:29.503Z,102160.14
2022-10-19T12:52:51.661Z,102167.66
2022-10-19T12:58:03.729Z,102168.53
2022-10-19T13:03:26.246Z,102168.66
2022-10-19T13:08:34.037Z,102188.00
2022-10-19T13:14:00.808Z,102172.31
2022-10-19T13:19:18.020Z,102170.88
2022-10-19T13:24:29.321Z,102171.14
2022-10-19T13:29:44.827Z,102170.97
2022-10-19T13:34:50.645Z,102175.83
2022-10-19T13:39:56.237Z,102181.61
2022-10-19T13:45:01.757Z,102178.77
2022-10-19T13:50:25.112Z,102194.59
2022-10-19T13:55:51.772Z,102192.11
2022-10-19T14:01:05.876Z,102187.94
2022-10-19T14:06:31.169Z,102184.84
2022-10-19T14:11:39.621Z,102188.09
2022-10-19T14:16:56.084Z,102185.38
2022-10-19T14:22:05.344Z,102188.46
2022-10-19T14:27:13.808Z,102179.19
2022-10-19T14:32:24.186Z,102179.91
2022-10-19T14:37:30.005Z,102180.24
2022-10-19T14:42:46.988Z,102179.99
2022-10-19T14:48:03.737Z,102190.64
2022-10-19T14:53:21.473Z,102184.53
2022-10-19T14:58:28.844Z,102186.74
2022-10-19T15:03:38.098Z,102192.55
2022-10-19T15:08:47.840Z,102196.48
2022-10-19T15:13:59.095Z,102185.80
2022-10-19T15:19:07.631Z,102183.98
2022-10-19T15:24:28.444Z,102187.56
2022-10-19T15:29:34.492Z,102190.75
2022-10-19T15:34:42.540Z,102192.03
2022-10-19T15:39:49.128Z,102189.77
2022-10-19T15:44:54.734Z,102185.16
2022-10-19T15:50:02.868Z,102188.51
2022-10-19T15:55:08.483Z,102187.90
2022-10-19T16:00:16.740Z,102198.62
2022-10-19T16:05:22.501Z,102187.94
2022-10-19T16:10:29.250Z,102198.59
2022-10-19T16:15:34.721Z,102193.70
2022-10-19T16:20:40.524Z,102202.34
2022-10-19T16:25:46.143Z,102202.21
2022-10-19T16:30:55.322Z,102212.03
2022-10-19T16:36:02.518Z,102210.73
2022-10-19T16:41:10.096Z,102208.82
2022-10-19T16:46:16.069Z,102211.14
2022-10-19T16:51:39.678Z,102218.91
2022-10-19T16:56:47.604Z,102226.17
2022-10-19T17:01:54.168Z,102222.53
2022-10-19T17:06:59.745Z,102223.13
2022-10-19T17:12:06.328Z,102227.59
2022-10-19T17:17:12.934Z,102239.77
2022-10-19T17:22:18.535Z,102240.25
2022-10-19T17:27:24.125Z,102237.66
2022-10-19T17:32:29.748Z,102238.50
2022-10-19T17:37:35.476Z,102239.34
2022-10-19T17:42:41.540Z,102242.79
2022-10-19T17:47:47.065Z,102248.06
2022-10-19T17:52:52.667Z,102237.83
2022-10-19T17:57:58.228Z,102244.03
2022-10-19T18:03:03.758Z,102246.98
2022-10-19T18:08:09.488Z,102252.23
2022-10-19T18:13:15.031Z,102251.53
2022-10-19T18:18:23.260Z,102258.53
2022-10-19T18:23:28.875Z,102256.83
2022-10-19T18:28:35.162Z,102255.05
2022-10-19T18:33:41.306Z,102261.16
2022-10-19T18:38:48.182Z,102261.25
2022-10-19T18:43:56.620Z,102264.05
2022-10-19T18:49:03.344Z,102262.30
2022-10-19T18:54:08.916Z,102260.63
2022-10-19T18:59:14.453Z,102262.25
2022-10-19T19:04:20.344Z,102270.47
2022-10-19T19:09:25.785Z,102263.16
2022-10-19T19:14:31.330Z,102263.20
2022-10-19T19:19:36.923Z,102262.32
2022-10-19T19:24:42.437Z,102262.56
2022-10-19T19:29:47.894Z,102260.39
2022-10-19T19:34:54.833Z,102256.55
2022-10-19T19:40:00.467Z,102265.66
2022-10-19T19:45:06.698Z,102264.41
2022-10-19T19:50:12.326Z,102267.11
2022-10-19T19:55:18.972Z,102267.16
2022-10-19T20:00:25.744Z,102272.38
2022-10-19T20:05:31.196Z,102272.98
2022-10-19T20:10:41.761Z,102271.79
2022-10-19T20:15:47.297Z,102278.08
2022-10-19T20:20:52.885Z,102280.02
2022-10-19T20:25:58.409Z,102291.88
2022-10-19T20:31:06.021Z,102300.41
2022-10-19T20:36:14.126Z,102298.62
2022-10-19T20:41:20.840Z,102297.73
2022-10-19T20:46:29.775Z,102297.78
2022-10-19T20:51:39.874Z,102309.42
2022-10-19T20:56:45.331Z,102303.35
2022-10-19T21:01:52.384Z,102317.70
2022-10-19T21:06:58.075Z,102321.27
2022-10-19T21:12:03.544Z,102317.73
2022-10-19T21:17:09.049Z,102313.83
2022-10-19T21:22:14.789Z,102313.11
2022-10-19T21:27:20.298Z,102305.97
2022-10-19T21:32:26.473Z,102306.03
2022-10-19T21:37:32.238Z,102302.09
2022-10-19T21:42:38.092Z,102307.59
2022-10-19T21:47:43.599Z,102294.33
2022-10-19T21:52:49.196Z,102294.39
2022-10-19T21:57:54.648Z,102295.80
2022-10-19T22:03:00.171Z,102284.74
2022-10-19T22:08:05.866Z,102288.34
2022-10-19T22:13:11.379Z,102287.63
2022-10-19T22:18:16.901Z,102290.32
2022-10-19T22:23:22.267Z,102281.03
2022-10-19T22:28:28.581Z,102293.14
2022-10-19T22:33:35.157Z,102283.03
2022-10-19T22:38:41.174Z,102262.11
2022-10-19T22:43:46.835Z,102255.03
2022-10-19T22:48:52.358Z,102263.14
2022-10-19T22:53:57.883Z,102257.88
2022-10-19T22:59:05.568Z,102265.15
2022-10-19T23:04:11.178Z,102268.78
2022-10-19T23:09:16.695Z,102257.40
2022-10-19T23:14:22.067Z,102259.28
2022-10-19T23:19:27.627Z,102237.58
2022-10-19T23:24:33.136Z,102233.14
2022-10-19T23:29:38.524Z,102223.91
2022-10-19T23:34:47.444Z,102223.09
2022-10-19T23:39:51.342Z,102226.84
2022-10-19T23:44:56.852Z,102231.00
2022-10-19T23:50:02.399Z,102222.53
2022-10-19T23:55:09.058Z,102226.55
